Terminal Aerodrome Forecast
Issued by NWS Cleveland, OH

Home | Current Version | Previous Version | Graphics & Text | Print | Product List | Glossary On
Versions: 1 2 3 4 5 6 7 8 9 10 11 12 13 14 15 16 17 18 19 20 21 22 23 24 25 26
337
FTUS41 KCLE 271303 AAA
TAFMFD
TAF AMD
KMFD 271303Z 2713/2812 02010KT P6SM OVC007
     FM271400 04010KT P6SM BKN012
     FM271500 05006KT P6SM SCT250
     FM280500 06007KT P6SM VCSH BKN040=

USA.gov is the U.S. government's official web portal to all federal, state and local government web resources and services.